Kristin D — C6XA6 — position and weather

sailwx.info

Track history (hours):
 
Tides and Currents Weather Stations Pressure Air Temp Water Temp Dewpoint Dewpoint Depression Visibility Wind Speed Wind Dir Waves Ship Positions

Kristin D

Last reported at 2014-Oct-20 07:33 UTC. Time now 2014-Oct-20 08:20 UTC.
Position N 59°20' E 010°36'.

Length 90 m; draft 3.8 m.

Type: Cargo ship. MMSI: 311003700.

Date/timePositionNaut miles runAvg speedWind from/ knotsBaromVisibWave heightAir tempDewpointWater temp
2014-Oct-20 07:33N 59°20' E 010°36'1211.5
2014-Oct-20 06:33N 59°09' E 010°38'8 7.5
2014-Oct-20 05:33N 59°02' E 010°35'7 7.1
2014-Oct-20 04:34N 58°56' E 010°26'8 7.6
2014-Oct-20 03:33N 58°51' E 010°14'141 8.3
2014-Oct-19 10:33N 58°01' E 006°03'1010.0
2014-Oct-19 09:33N 58°03' E 005°44'263 7.9
2014-Oct-18 00:25N 58°41' W 002°32'5 6.2
2014-Oct-17 23:33N 58°41' W 002°43'6 6.4
2014-Oct-17 22:33N 58°42' W 002°55'6 6.5
2014-Oct-17 21:34N 58°43' W 003°07'8 7.6
2014-Oct-17 20:34N 58°43' W 003°22'9 9.4
2014-Oct-17 19:34N 58°43' W 003°40'1010.1
2014-Oct-17 18:34N 58°42' W 003°59'1010.5
2014-Oct-17 17:33N 58°41' W 004°19'1511.2
2014-Oct-17 16:15N 58°40' W 004°47'3110.7
2014-Oct-17 13:19N 58°19' W 005°30'911.3
2014-Oct-17 12:33N 58°11' W 005°39'1211.1
2014-Oct-17 11:31N 58°02' W 005°51'133 9.5
2014-Oct-16 21:32N 55°52' W 006°50'1212.6
2014-Oct-16 20:33N 55°42' W 006°39'1313.2
2014-Oct-16 19:33N 55°32' W 006°23'1212.1
2014-Oct-16 18:33N 55°25' W 006°05'1212.2
2014-Oct-16 17:32N 55°15' W 005°52'1511.5
2014-Oct-16 16:11N 55°02' W 005°37'811.1
2014-Oct-16 15:31N 54°56' W 005°31'1010.7
2014-Oct-16 14:33N 54°47' W 005°21'1110.7
2014-Oct-16 13:33N 54°37' W 005°14'1111.0
2014-Oct-16 12:33N 54°27' W 005°09'1111.3
2014-Oct-16 11:33N 54°16' W 005°05'4811.1
2014-Oct-16 07:15N 53°42' W 004°07'912.0
2014-Oct-16 06:32N 53°38' W 003°54'1211.6
2014-Oct-16 05:31N 53°34' W 003°36'1111.5
2014-Oct-16 04:33N 53°32' W 003°17'10 9.9
2014-Oct-16 03:33N 53°27' W 003°02'4 4.3
2014-Oct-16 02:31N 53°23' W 003°00'0 0.0
2014-Oct-16 01:31N 53°23' W 003°00'0 0.0
2014-Oct-16 00:31N 53°23' W 003°00'0 0.0
2014-Oct-15 23:31N 53°23' W 003°00'0 0.0
2014-Oct-15 22:31N 53°23' W 003°00'0 0.0
2014-Oct-15 21:31N 53°23' W 003°00'0 0.0
2014-Oct-15 20:31N 53°23' W 003°00'0 0.0
2014-Oct-15 19:31N 53°23' W 003°00'0 0.0
2014-Oct-15 18:31N 53°23' W 003°00'0 0.0
2014-Oct-15 17:31N 53°23' W 003°00'0 0.0
2014-Oct-15 16:31N 53°23' W 003°00'0 0.0
2014-Oct-15 15:19N 53°23' W 003°00'0 0.0
2014-Oct-15 14:31N 53°23' W 003°00'0 0.0
2014-Oct-15 13:31N 53°23' W 003°00'0 0.0
2014-Oct-15 12:25N 53°23' W 003°00'0 0.0
2014-Oct-15 11:25N 53°23' W 003°00'0 0.0
2014-Oct-15 10:25N 53°23' W 003°00'0 0.0
2014-Oct-15 09:31N 53°23' W 003°00'0 0.0
2014-Oct-15 08:30N 53°23' W 003°00'0 0.0
2014-Oct-15 07:30N 53°23' W 003°00'0 0.0
2014-Oct-15 06:30N 53°23' W 003°00'0 0.0
2014-Oct-15 05:24N 53°23' W 003°00'0 0.0
2014-Oct-15 04:30N 53°23' W 003°00'0 0.0
2014-Oct-15 03:30N 53°23' W 003°00'0 0.0
2014-Oct-15 02:30N 53°23' W 003°00'0 0.2
2014-Oct-15 01:33N 53°23' W 003°00'6 6.2
2014-Oct-15 00:33N 53°29' W 003°05'9 9.2
2014-Oct-14 23:32N 53°32' W 003°20'5 4.8
2014-Oct-14 22:33N 53°28' W 003°26'0 0.1
2014-Oct-14 21:28N 53°28' W 003°26'0 0.0
2014-Oct-14 20:07N 53°28' W 003°26'0 0.0
2014-Oct-14 19:25N 53°28' W 003°26'0 0.0
2014-Oct-14 17:31N 53°28' W 003°26'0 0.0
2014-Oct-14 16:33N 53°28' W 003°26'7 7.2
2014-Oct-14 15:32N 53°31' W 003°37'103 9.3
2014-Oct-14 04:33N 52°24' W 005°46'9 8.7
2014-Oct-14 03:33N 52°16' W 005°53'10 9.5
2014-Oct-14 02:32N 52°08' W 006°01'1010.4
2014-Oct-14 01:33N 52°02' W 006°15'1111.4
2014-Oct-14 00:33N 51°55' W 006°30'1111.4
2014-Oct-13 23:33N 51°52' W 006°48'1111.3
2014-Oct-13 22:33N 51°50' W 007°06'1111.2
2014-Oct-13 21:33N 51°48' W 007°23'1110.9
2014-Oct-13 20:33N 51°46' W 007°41'1110.9
2014-Oct-13 19:33N 51°44' W 007°58'1110.9
2014-Oct-13 18:33N 51°45' W 008°15'7 7.1
2014-Oct-13 17:32N 51°52' W 008°20'0 0.0
2014-Oct-13 16:32N 51°52' W 008°20'0 0.0
2014-Oct-13 15:32N 51°52' W 008°20'0 0.0
2014-Oct-13 14:32N 51°52' W 008°20'0 0.0
2014-Oct-13 13:32N 51°52' W 008°20'0 0.0
2014-Oct-13 12:32N 51°52' W 008°20'0 0.0
2014-Oct-13 11:32N 51°52' W 008°20'0 0.0
2014-Oct-13 10:32N 51°52' W 008°20'0 0.0
2014-Oct-13 09:32N 51°52' W 008°20'0 0.0
2014-Oct-13 08:32N 51°52' W 008°20'0 0.0
2014-Oct-13 07:32N 51°52' W 008°20'0 0.0
2014-Oct-13 06:32N 51°52' W 008°20'0 0.4
2014-Oct-13 05:33N 51°52' W 008°20'7 7.3
2014-Oct-13 04:33N 51°45' W 008°15'4 4.2
2014-Oct-13 03:34N 51°41' W 008°12'1 1.1
2014-Oct-13 02:33N 51°40' W 008°11'6 6.2
2014-Oct-13 01:33N 51°38' W 008°01'9 9.0
2014-Oct-13 00:33N 51°31' W 007°52'1010.5
2014-Oct-12 23:33N 51°24' W 007°40'306 9.3
2014-Oct-11 14:33N 50°36' E 000°21'1010.5
2014-Oct-11 13:33N 50°40' E 000°37'10 9.7
2014-Oct-11 12:33N 50°45' E 000°50'2410.2
2014-Oct-11 10:11N 51°00' E 001°19'813.3
2014-Oct-11 09:33N 51°05' E 001°30'1414.1
2014-Oct-11 08:34N 51°15' E 001°46'1312.5
2014-Oct-11 07:33N 51°26' E 001°57'1111.2
2014-Oct-11 06:33N 51°35' E 002°08'38 9.3
2014-Oct-11 02:25N 52°04' E 002°48'8 9.4
2014-Oct-11 01:32N 52°10' E 002°57'4411.1
2014-Oct-10 21:33N 52°45' E 003°42'1111.1
2014-Oct-10 20:31N 52°54' E 003°54'10 9.7
2014-Oct-10 19:29N 53°01' E 004°06'24 8.1
2014-Oct-10 16:33N 53°20' E 004°31'9 8.6
2014-Oct-10 15:33N 53°27' E 004°37'9 9.4
2014-Oct-10 14:33N 53°32' E 004°50'10 9.8
2014-Oct-10 13:33N 53°35' E 005°06'1010.2
2014-Oct-10 12:33N 53°38' E 005°22'10 9.6
2014-Oct-10 11:33N 53°41' E 005°38'8 7.6
2014-Oct-10 10:33N 53°43' E 005°50'8 7.7
2014-Oct-10 09:33N 53°46' E 006°03'5 5.3
2014-Oct-10 08:33N 53°47' E 006°11'  
Track history (hours):
 
Tides and Currents Weather Stations Pressure Air Temp Water Temp Dewpoint Dewpoint Depression Visibility Wind Speed Wind Dir Waves Ship Positions

Kristin D

Last reported at 2014-Oct-20 07:33 UTC. Time now 2014-Oct-20 08:20 UTC.
Position N 59°20' E 010°36'.

Length 90 m; draft 3.8 m.

Type: Cargo ship. MMSI: 311003700.

Date/timePositionNaut miles runAvg speedWind from/ knotsBaromVisibWave heightAir tempDewpointWater temp
2014-Oct-20 07:33N 59°20' E 010°36'1211.5
2014-Oct-20 06:33N 59°09' E 010°38'8 7.5
2014-Oct-20 05:33N 59°02' E 010°35'7 7.1
2014-Oct-20 04:34N 58°56' E 010°26'8 7.6
2014-Oct-20 03:33N 58°51' E 010°14'141 8.3
2014-Oct-19 10:33N 58°01' E 006°03'1010.0
2014-Oct-19 09:33N 58°03' E 005°44'263 7.9
2014-Oct-18 00:25N 58°41' W 002°32'5 6.2
2014-Oct-17 23:33N 58°41' W 002°43'6 6.4
2014-Oct-17 22:33N 58°42' W 002°55'6 6.5
2014-Oct-17 21:34N 58°43' W 003°07'8 7.6
2014-Oct-17 20:34N 58°43' W 003°22'9 9.4
2014-Oct-17 19:34N 58°43' W 003°40'1010.1
2014-Oct-17 18:34N 58°42' W 003°59'1010.5
2014-Oct-17 17:33N 58°41' W 004°19'1511.2
2014-Oct-17 16:15N 58°40' W 004°47'3110.7
2014-Oct-17 13:19N 58°19' W 005°30'911.3
2014-Oct-17 12:33N 58°11' W 005°39'1211.1
2014-Oct-17 11:31N 58°02' W 005°51'133 9.5
2014-Oct-16 21:32N 55°52' W 006°50'1212.6
2014-Oct-16 20:33N 55°42' W 006°39'1313.2
2014-Oct-16 19:33N 55°32' W 006°23'1212.1
2014-Oct-16 18:33N 55°25' W 006°05'1212.2
2014-Oct-16 17:32N 55°15' W 005°52'1511.5
2014-Oct-16 16:11N 55°02' W 005°37'811.1
2014-Oct-16 15:31N 54°56' W 005°31'1010.7
2014-Oct-16 14:33N 54°47' W 005°21'1110.7
2014-Oct-16 13:33N 54°37' W 005°14'1111.0
2014-Oct-16 12:33N 54°27' W 005°09'1111.3
2014-Oct-16 11:33N 54°16' W 005°05'4811.1
2014-Oct-16 07:15N 53°42' W 004°07'912.0
2014-Oct-16 06:32N 53°38' W 003°54'1211.6
2014-Oct-16 05:31N 53°34' W 003°36'1111.5
2014-Oct-16 04:33N 53°32' W 003°17'10 9.9
2014-Oct-16 03:33N 53°27' W 003°02'4 4.3
2014-Oct-16 02:31N 53°23' W 003°00'0 0.0
2014-Oct-16 01:31N 53°23' W 003°00'0 0.0
2014-Oct-16 00:31N 53°23' W 003°00'0 0.0
2014-Oct-15 23:31N 53°23' W 003°00'0 0.0
2014-Oct-15 22:31N 53°23' W 003°00'0 0.0
2014-Oct-15 21:31N 53°23' W 003°00'0 0.0
2014-Oct-15 20:31N 53°23' W 003°00'0 0.0
2014-Oct-15 19:31N 53°23' W 003°00'0 0.0
2014-Oct-15 18:31N 53°23' W 003°00'0 0.0
2014-Oct-15 17:31N 53°23' W 003°00'0 0.0
2014-Oct-15 16:31N 53°23' W 003°00'0 0.0
2014-Oct-15 15:19N 53°23' W 003°00'0 0.0
2014-Oct-15 14:31N 53°23' W 003°00'0 0.0
2014-Oct-15 13:31N 53°23' W 003°00'0 0.0
2014-Oct-15 12:25N 53°23' W 003°00'0 0.0
2014-Oct-15 11:25N 53°23' W 003°00'0 0.0
2014-Oct-15 10:25N 53°23' W 003°00'0 0.0
2014-Oct-15 09:31N 53°23' W 003°00'0 0.0
2014-Oct-15 08:30N 53°23' W 003°00'0 0.0
2014-Oct-15 07:30N 53°23' W 003°00'0 0.0
2014-Oct-15 06:30N 53°23' W 003°00'0 0.0
2014-Oct-15 05:24N 53°23' W 003°00'0 0.0
2014-Oct-15 04:30N 53°23' W 003°00'0 0.0
2014-Oct-15 03:30N 53°23' W 003°00'0 0.0
2014-Oct-15 02:30N 53°23' W 003°00'0 0.2
2014-Oct-15 01:33N 53°23' W 003°00'6 6.2
2014-Oct-15 00:33N 53°29' W 003°05'9 9.2
2014-Oct-14 23:32N 53°32' W 003°20'5 4.8
2014-Oct-14 22:33N 53°28' W 003°26'0 0.1
2014-Oct-14 21:28N 53°28' W 003°26'0 0.0
2014-Oct-14 20:07N 53°28' W 003°26'0 0.0
2014-Oct-14 19:25N 53°28' W 003°26'0 0.0
2014-Oct-14 17:31N 53°28' W 003°26'0 0.0
2014-Oct-14 16:33N 53°28' W 003°26'7 7.2
2014-Oct-14 15:32N 53°31' W 003°37'103 9.3
2014-Oct-14 04:33N 52°24' W 005°46'9 8.7
2014-Oct-14 03:33N 52°16' W 005°53'10 9.5
2014-Oct-14 02:32N 52°08' W 006°01'1010.4
2014-Oct-14 01:33N 52°02' W 006°15'1111.4
2014-Oct-14 00:33N 51°55' W 006°30'1111.4
2014-Oct-13 23:33N 51°52' W 006°48'1111.3
2014-Oct-13 22:33N 51°50' W 007°06'1111.2
2014-Oct-13 21:33N 51°48' W 007°23'1110.9
2014-Oct-13 20:33N 51°46' W 007°41'1110.9
2014-Oct-13 19:33N 51°44' W 007°58'1110.9
2014-Oct-13 18:33N 51°45' W 008°15'7 7.1
2014-Oct-13 17:32N 51°52' W 008°20'0 0.0
2014-Oct-13 16:32N 51°52' W 008°20'0 0.0
2014-Oct-13 15:32N 51°52' W 008°20'0 0.0
2014-Oct-13 14:32N 51°52' W 008°20'0 0.0
2014-Oct-13 13:32N 51°52' W 008°20'0 0.0
2014-Oct-13 12:32N 51°52' W 008°20'0 0.0
2014-Oct-13 11:32N 51°52' W 008°20'0 0.0
2014-Oct-13 10:32N 51°52' W 008°20'0 0.0
2014-Oct-13 09:32N 51°52' W 008°20'0 0.0
2014-Oct-13 08:32N 51°52' W 008°20'0 0.0
2014-Oct-13 07:32N 51°52' W 008°20'0 0.0
2014-Oct-13 06:32N 51°52' W 008°20'0 0.4
2014-Oct-13 05:33N 51°52' W 008°20'7 7.3
2014-Oct-13 04:33N 51°45' W 008°15'4 4.2
2014-Oct-13 03:34N 51°41' W 008°12'1 1.1
2014-Oct-13 02:33N 51°40' W 008°11'6 6.2
2014-Oct-13 01:33N 51°38' W 008°01'9 9.0
2014-Oct-13 00:33N 51°31' W 007°52'1010.5
2014-Oct-12 23:33N 51°24' W 007°40'306 9.3
2014-Oct-11 14:33N 50°36' E 000°21'1010.5
2014-Oct-11 13:33N 50°40' E 000°37'10 9.7
2014-Oct-11 12:33N 50°45' E 000°50'2410.2
2014-Oct-11 10:11N 51°00' E 001°19'813.3
2014-Oct-11 09:33N 51°05' E 001°30'1414.1
2014-Oct-11 08:34N 51°15' E 001°46'1312.5
2014-Oct-11 07:33N 51°26' E 001°57'1111.2
2014-Oct-11 06:33N 51°35' E 002°08'38 9.3
2014-Oct-11 02:25N 52°04' E 002°48'8 9.4
2014-Oct-11 01:32N 52°10' E 002°57'4411.1
2014-Oct-10 21:33N 52°45' E 003°42'1111.1
2014-Oct-10 20:31N 52°54' E 003°54'10 9.7
2014-Oct-10 19:29N 53°01' E 004°06'24 8.1
2014-Oct-10 16:33N 53°20' E 004°31'9 8.6
2014-Oct-10 15:33N 53°27' E 004°37'9 9.4
2014-Oct-10 14:33N 53°32' E 004°50'10 9.8
2014-Oct-10 13:33N 53°35' E 005°06'1010.2
2014-Oct-10 12:33N 53°38' E 005°22'10 9.6
2014-Oct-10 11:33N 53°41' E 005°38'8 7.6
2014-Oct-10 10:33N 53°43' E 005°50'8 7.7
2014-Oct-10 09:33N 53°46' E 006°03'5 5.3
2014-Oct-10 08:33N 53°47' E 006°11'  

Dump ship's entire track history